sensor_id;sensor_type;location;lat;lon;timestamp;P1;P2;P0
70691;PMS5003;58267;51.156;17.044;2024-01-15T00:01:05;36;35;
70691;PMS5003;58267;51.156;17.044;2024-01-15T00:03:30;31;29;
70691;PMS5003;58267;51.156;17.044;2024-01-15T00:05:56;35;32;
70691;PMS5003;58267;51.156;17.044;2024-01-15T00:08:22;33;33;
70691;PMS5003;58267;51.156;17.044;2024-01-15T00:10:47;37;34;
70691;PMS5003;58267;51.156;17.044;2024-01-15T00:13:13;33;32;
70691;PMS5003;58267;51.156;17.044;2024-01-15T00:15:38;35;33;
70691;PMS5003;58267;51.156;17.044;2024-01-15T00:18:04;37;33;
70691;PMS5003;58267;51.156;17.044;2024-01-15T00:20:29;35;31;
70691;PMS5003;58267;51.156;17.044;2024-01-15T00:22:54;37;35;
70691;PMS5003;58267;51.156;17.044;2024-01-15T00:25:20;34;33;
70691;PMS5003;58267;51.156;17.044;2024-01-15T00:27:45;35;31;
70691;PMS5003;58267;51.156;17.044;2024-01-15T00:30:12;36;35;
70691;PMS5003;58267;51.156;17.044;2024-01-15T00:32:37;29;28;
70691;PMS5003;58267;51.156;17.044;2024-01-15T00:35:02;33;31;
70691;PMS5003;58267;51.156;17.044;2024-01-15T00:37:28;28;27;
70691;PMS5003;58267;51.156;17.044;2024-01-15T00:39:53;35;34;
70691;PMS5003;58267;51.156;17.044;2024-01-15T00:42:20;34;30;
70691;PMS5003;58267;51.156;17.044;2024-01-15T00:44:45;24;24;
70691;PMS5003;58267;51.156;17.044;2024-01-15T00:47:11;32;30;
70691;PMS5003;58267;51.156;17.044;2024-01-15T00:49:37;31;28;
70691;PMS5003;58267;51.156;17.044;2024-01-15T00:52:02;32;29;
70691;PMS5003;58267;51.156;17.044;2024-01-15T00:54:27;29;28;
70691;PMS5003;58267;51.156;17.044;2024-01-15T00:56:53;30;28;
70691;PMS5003;58267;51.156;17.044;2024-01-15T00:59:18;27;25;
70691;PMS5003;58267;51.156;17.044;2024-01-15T01:01:44;32;31;
70691;PMS5003;58267;51.156;17.044;2024-01-15T01:04:09;28;26;
70691;PMS5003;58267;51.156;17.044;2024-01-15T01:06:34;32;31;
70691;PMS5003;58267;51.156;17.044;2024-01-15T01:09:00;29;28;
70691;PMS5003;58267;51.156;17.044;2024-01-15T01:11:25;29;28;
70691;PMS5003;58267;51.156;17.044;2024-01-15T01:13:50;28;28;
70691;PMS5003;58267;51.156;17.044;2024-01-15T01:16:16;27;27;
70691;PMS5003;58267;51.156;17.044;2024-01-15T01:18:41;32;32;
70691;PMS5003;58267;51.156;17.044;2024-01-15T01:21:06;32;29;
70691;PMS5003;58267;51.156;17.044;2024-01-15T01:23:32;28;27;
70691;PMS5003;58267;51.156;17.044;2024-01-15T01:25:58;27;26;
70691;PMS5003;58267;51.156;17.044;2024-01-15T01:28:23;31;31;
70691;PMS5003;58267;51.156;17.044;2024-01-15T01:30:49;32;28;
70691;PMS5003;58267;51.156;17.044;2024-01-15T01:33:14;36;35;
70691;PMS5003;58267;51.156;17.044;2024-01-15T01:35:40;30;28;
70691;PMS5003;58267;51.156;17.044;2024-01-15T01:38:05;26;25;
70691;PMS5003;58267;51.156;17.044;2024-01-15T01:40:31;30;30;
70691;PMS5003;58267;51.156;17.044;2024-01-15T01:42:57;31;30;
70691;PMS5003;58267;51.156;17.044;2024-01-15T01:45:22;33;31;
70691;PMS5003;58267;51.156;17.044;2024-01-15T01:47:47;33;30;
70691;PMS5003;58267;51.156;17.044;2024-01-15T01:50:12;30;28;
70691;PMS5003;58267;51.156;17.044;2024-01-15T01:52:37;30;29;
70691;PMS5003;58267;51.156;17.044;2024-01-15T01:55:04;32;31;
70691;PMS5003;58267;51.156;17.044;2024-01-15T01:57:29;26;26;
70691;PMS5003;58267;51.156;17.044;2024-01-15T01:59:54;27;27;
70691;PMS5003;58267;51.156;17.044;2024-01-15T02:02:20;33;30;
70691;PMS5003;58267;51.156;17.044;2024-01-15T02:04:46;31;30;
70691;PMS5003;58267;51.156;17.044;2024-01-15T02:07:10;31;29;
70691;PMS5003;58267;51.156;17.044;2024-01-15T02:09:36;31;28;
70691;PMS5003;58267;51.156;17.044;2024-01-15T02:12:01;28;27;
70691;PMS5003;58267;51.156;17.044;2024-01-15T02:14:26;29;27;
70691;PMS5003;58267;51.156;17.044;2024-01-15T02:16:51;25;23;
70691;PMS5003;58267;51.156;17.044;2024-01-15T02:19:17;29;27;
70691;PMS5003;58267;51.156;17.044;2024-01-15T02:21:42;26;25;
70691;PMS5003;58267;51.156;17.044;2024-01-15T02:24:08;28;26;
70691;PMS5003;58267;51.156;17.044;2024-01-15T02:26:34;26;24;
70691;PMS5003;58267;51.156;17.044;2024-01-15T02:28:59;31;26;
70691;PMS5003;58267;51.156;17.044;2024-01-15T02:31:25;26;25;
70691;PMS5003;58267;51.156;17.044;2024-01-15T02:33:50;25;24;
70691;PMS5003;58267;51.156;17.044;2024-01-15T02:36:16;28;27;
70691;PMS5003;58267;51.156;17.044;2024-01-15T02:38:42;25;24;
70691;PMS5003;58267;51.156;17.044;2024-01-15T02:41:08;27;25;
70691;PMS5003;58267;51.156;17.044;2024-01-15T02:43:33;27;25;
70691;PMS5003;58267;51.156;17.044;2024-01-15T02:45:59;27;26;
70691;PMS5003;58267;51.156;17.044;2024-01-15T02:48:25;31;29;
70691;PMS5003;58267;51.156;17.044;2024-01-15T02:50:50;29;27;
70691;PMS5003;58267;51.156;17.044;2024-01-15T02:53:15;35;33;
70691;PMS5003;58267;51.156;17.044;2024-01-15T02:55:41;27;25;
70691;PMS5003;58267;51.156;17.044;2024-01-15T02:58:07;29;27;
70691;PMS5003;58267;51.156;17.044;2024-01-15T03:00:32;30;28;
70691;PMS5003;58267;51.156;17.044;2024-01-15T03:02:57;23;23;
70691;PMS5003;58267;51.156;17.044;2024-01-15T03:05:23;29;27;
70691;PMS5003;58267;51.156;17.044;2024-01-15T03:07:49;25;23;
70691;PMS5003;58267;51.156;17.044;2024-01-15T03:10:15;21;21;
70691;PMS5003;58267;51.156;17.044;2024-01-15T03:12:40;24;21;
70691;PMS5003;58267;51.156;17.044;2024-01-15T03:15:05;25;24;
70691;PMS5003;58267;51.156;17.044;2024-01-15T03:17:30;25;25;
70691;PMS5003;58267;51.156;17.044;2024-01-15T03:19:55;24;23;
70691;PMS5003;58267;51.156;17.044;2024-01-15T03:22:21;23;22;
70691;PMS5003;58267;51.156;17.044;2024-01-15T03:24:46;23;22;
70691;PMS5003;58267;51.156;17.044;2024-01-15T03:27:11;21;21;
70691;PMS5003;58267;51.156;17.044;2024-01-15T03:29:37;23;21;
70691;PMS5003;58267;51.156;17.044;2024-01-15T03:32:02;20;20;
70691;PMS5003;58267;51.156;17.044;2024-01-15T03:34:27;25;23;
70691;PMS5003;58267;51.156;17.044;2024-01-15T03:36:52;23;22;
70691;PMS5003;58267;51.156;17.044;2024-01-15T03:39:18;20;19;
70691;PMS5003;58267;51.156;17.044;2024-01-15T03:41:43;17;17;
70691;PMS5003;58267;51.156;17.044;2024-01-15T03:44:09;17;16;
70691;PMS5003;58267;51.156;17.044;2024-01-15T03:46:35;19;18;
70691;PMS5003;58267;51.156;17.044;2024-01-15T03:49:01;21;20;
70691;PMS5003;58267;51.156;17.044;2024-01-15T03:51:26;23;21;
70691;PMS5003;58267;51.156;17.044;2024-01-15T03:53:51;20;19;
70691;PMS5003;58267;51.156;17.044;2024-01-15T03:56:16;23;20;
70691;PMS5003;58267;51.156;17.044;2024-01-15T03:58:42;20;18;
70691;PMS5003;58267;51.156;17.044;2024-01-15T04:01:08;20;19;
70691;PMS5003;58267;51.156;17.044;2024-01-15T04:03:34;19;19;
70691;PMS5003;58267;51.156;17.044;2024-01-15T04:05:59;21;19;
70691;PMS5003;58267;51.156;17.044;2024-01-15T04:08:25;24;23;
70691;PMS5003;58267;51.156;17.044;2024-01-15T04:10:49;18;18;
70691;PMS5003;58267;51.156;17.044;2024-01-15T04:13:15;19;19;
70691;PMS5003;58267;51.156;17.044;2024-01-15T04:15:40;18;18;
70691;PMS5003;58267;51.156;17.044;2024-01-15T04:18:05;22;20;
70691;PMS5003;58267;51.156;17.044;2024-01-15T04:20:31;23;21;
70691;PMS5003;58267;51.156;17.044;2024-01-15T04:22:56;17;15;
70691;PMS5003;58267;51.156;17.044;2024-01-15T04:25:22;22;20;
70691;PMS5003;58267;51.156;17.044;2024-01-15T04:27:47;19;19;
70691;PMS5003;58267;51.156;17.044;2024-01-15T04:30:13;18;16;
70691;PMS5003;58267;51.156;17.044;2024-01-15T04:32:38;19;18;
70691;PMS5003;58267;51.156;17.044;2024-01-15T04:35:04;15;14;
70691;PMS5003;58267;51.156;17.044;2024-01-15T04:37:29;16;15;
70691;PMS5003;58267;51.156;17.044;2024-01-15T04:39:55;19;18;
70691;PMS5003;58267;51.156;17.044;2024-01-15T04:42:20;14;14;
70691;PMS5003;58267;51.156;17.044;2024-01-15T04:44:46;18;16;
70691;PMS5003;58267;51.156;17.044;2024-01-15T04:47:12;16;14;
70691;PMS5003;58267;51.156;17.044;2024-01-15T04:49:37;16;14;
70691;PMS5003;58267;51.156;17.044;2024-01-15T04:52:03;15;14;
70691;PMS5003;58267;51.156;17.044;2024-01-15T04:54:28;17;15;
70691;PMS5003;58267;51.156;17.044;2024-01-15T04:56:54;13;13;
70691;PMS5003;58267;51.156;17.044;2024-01-15T04:59:20;17;16;
70691;PMS5003;58267;51.156;17.044;2024-01-15T05:01:46;12;12;
70691;PMS5003;58267;51.156;17.044;2024-01-15T05:04:13;15;15;
70691;PMS5003;58267;51.156;17.044;2024-01-15T05:06:38;14;13;
70691;PMS5003;58267;51.156;17.044;2024-01-15T05:09:03;13;13;
70691;PMS5003;58267;51.156;17.044;2024-01-15T05:11:29;16;15;
70691;PMS5003;58267;51.156;17.044;2024-01-15T05:13:54;14;13;
70691;PMS5003;58267;51.156;17.044;2024-01-15T05:16:19;16;16;
70691;PMS5003;58267;51.156;17.044;2024-01-15T05:18:45;13;13;
70691;PMS5003;58267;51.156;17.044;2024-01-15T05:21:10;15;14;
70691;PMS5003;58267;51.156;17.044;2024-01-15T05:23:36;15;15;
70691;PMS5003;58267;51.156;17.044;2024-01-15T05:26:01;16;14;
70691;PMS5003;58267;51.156;17.044;2024-01-15T05:28:27;19;17;
70691;PMS5003;58267;51.156;17.044;2024-01-15T05:30:52;19;17;
70691;PMS5003;58267;51.156;17.044;2024-01-15T05:33:18;20;19;
70691;PMS5003;58267;51.156;17.044;2024-01-15T05:35:43;17;17;
70691;PMS5003;58267;51.156;17.044;2024-01-15T05:38:08;18;17;
70691;PMS5003;58267;51.156;17.044;2024-01-15T05:40:34;21;19;
70691;PMS5003;58267;51.156;17.044;2024-01-15T05:43:00;17;16;
70691;PMS5003;58267;51.156;17.044;2024-01-15T05:45:25;22;20;
70691;PMS5003;58267;51.156;17.044;2024-01-15T05:47:50;26;23;
70691;PMS5003;58267;51.156;17.044;2024-01-15T05:50:15;20;18;
70691;PMS5003;58267;51.156;17.044;2024-01-15T05:52:40;19;17;
70691;PMS5003;58267;51.156;17.044;2024-01-15T05:55:07;19;18;
70691;PMS5003;58267;51.156;17.044;2024-01-15T05:57:31;18;18;
70691;PMS5003;58267;51.156;17.044;2024-01-15T05:59:57;24;20;
70691;PMS5003;58267;51.156;17.044;2024-01-15T06:02:22;24;23;
70691;PMS5003;58267;51.156;17.044;2024-01-15T06:04:47;23;22;
70691;PMS5003;58267;51.156;17.044;2024-01-15T06:07:13;20;20;
70691;PMS5003;58267;51.156;17.044;2024-01-15T06:09:38;20;19;
70691;PMS5003;58267;51.156;17.044;2024-01-15T06:12:04;17;17;
70691;PMS5003;58267;51.156;17.044;2024-01-15T06:14:29;18;17;
70691;PMS5003;58267;51.156;17.044;2024-01-15T06:16:54;17;17;
70691;PMS5003;58267;51.156;17.044;2024-01-15T06:19:20;17;17;
70691;PMS5003;58267;51.156;17.044;2024-01-15T06:21:45;22;20;
70691;PMS5003;58267;51.156;17.044;2024-01-15T06:24:11;15;15;
70691;PMS5003;58267;51.156;17.044;2024-01-15T06:26:37;18;16;
70691;PMS5003;58267;51.156;17.044;2024-01-15T06:29:02;17;15;
70691;PMS5003;58267;51.156;17.044;2024-01-15T06:31:28;19;17;
70691;PMS5003;58267;51.156;17.044;2024-01-15T06:33:54;20;19;
70691;PMS5003;58267;51.156;17.044;2024-01-15T06:36:19;21;20;
70691;PMS5003;58267;51.156;17.044;2024-01-15T06:38:45;18;17;
70691;PMS5003;58267;51.156;17.044;2024-01-15T06:41:10;17;16;
70691;PMS5003;58267;51.156;17.044;2024-01-15T06:43:36;18;17;
70691;PMS5003;58267;51.156;17.044;2024-01-15T06:46:01;17;17;
70691;PMS5003;58267;51.156;17.044;2024-01-15T06:48:27;21;18;
70691;PMS5003;58267;51.156;17.044;2024-01-15T06:50:53;17;16;
70691;PMS5003;58267;51.156;17.044;2024-01-15T06:53:19;20;19;
70691;PMS5003;58267;51.156;17.044;2024-01-15T06:55:44;17;16;
70691;PMS5003;58267;51.156;17.044;2024-01-15T06:58:09;22;21;
70691;PMS5003;58267;51.156;17.044;2024-01-15T07:00:35;18;16;
70691;PMS5003;58267;51.156;17.044;2024-01-15T07:03:00;18;17;
70691;PMS5003;58267;51.156;17.044;2024-01-15T07:05:26;21;20;
70691;PMS5003;58267;51.156;17.044;2024-01-15T07:07:51;20;18;
70691;PMS5003;58267;51.156;17.044;2024-01-15T07:10:16;17;17;
70691;PMS5003;58267;51.156;17.044;2024-01-15T07:12:41;20;18;
70691;PMS5003;58267;51.156;17.044;2024-01-15T07:15:08;20;18;
70691;PMS5003;58267;51.156;17.044;2024-01-15T07:17:32;20;20;
70691;PMS5003;58267;51.156;17.044;2024-01-15T07:19:58;23;21;
70691;PMS5003;58267;51.156;17.044;2024-01-15T07:22:24;20;19;
70691;PMS5003;58267;51.156;17.044;2024-01-15T07:24:51;19;18;
70691;PMS5003;58267;51.156;17.044;2024-01-15T07:27:16;20;18;
70691;PMS5003;58267;51.156;17.044;2024-01-15T07:29:42;25;24;
70691;PMS5003;58267;51.156;17.044;2024-01-15T07:32:07;20;19;
70691;PMS5003;58267;51.156;17.044;2024-01-15T07:34:34;21;21;
70691;PMS5003;58267;51.156;17.044;2024-01-15T07:37:00;16;16;
70691;PMS5003;58267;51.156;17.044;2024-01-15T07:39:26;20;19;
70691;PMS5003;58267;51.156;17.044;2024-01-15T07:41:52;18;17;
70691;PMS5003;58267;51.156;17.044;2024-01-15T07:44:18;18;16;
70691;PMS5003;58267;51.156;17.044;2024-01-15T07:46:43;20;18;
70691;PMS5003;58267;51.156;17.044;2024-01-15T07:49:09;20;20;
70691;PMS5003;58267;51.156;17.044;2024-01-15T07:51:34;21;19;
70691;PMS5003;58267;51.156;17.044;2024-01-15T07:54:00;19;18;
70691;PMS5003;58267;51.156;17.044;2024-01-15T07:56:25;22;21;
70691;PMS5003;58267;51.156;17.044;2024-01-15T07:58:51;20;19;
70691;PMS5003;58267;51.156;17.044;2024-01-15T08:01:16;19;19;
70691;PMS5003;58267;51.156;17.044;2024-01-15T08:03:42;19;19;
70691;PMS5003;58267;51.156;17.044;2024-01-15T08:06:07;13;13;
70691;PMS5003;58267;51.156;17.044;2024-01-15T08:08:32;19;18;
70691;PMS5003;58267;51.156;17.044;2024-01-15T08:10:58;20;19;
70691;PMS5003;58267;51.156;17.044;2024-01-15T08:13:26;16;16;
70691;PMS5003;58267;51.156;17.044;2024-01-15T08:15:49;18;17;
70691;PMS5003;58267;51.156;17.044;2024-01-15T08:18:15;16;15;
70691;PMS5003;58267;51.156;17.044;2024-01-15T08:20:40;17;15;
70691;PMS5003;58267;51.156;17.044;2024-01-15T08:23:06;17;15;
70691;PMS5003;58267;51.156;17.044;2024-01-15T08:25:31;16;14;
70691;PMS5003;58267;51.156;17.044;2024-01-15T08:27:56;16;14;
70691;PMS5003;58267;51.156;17.044;2024-01-15T08:30:21;16;14;
70691;PMS5003;58267;51.156;17.044;2024-01-15T08:32:47;15;14;
70691;PMS5003;58267;51.156;17.044;2024-01-15T08:35:13;14;14;
70691;PMS5003;58267;51.156;17.044;2024-01-15T08:37:37;16;16;
70691;PMS5003;58267;51.156;17.044;2024-01-15T08:40:03;15;14;
70691;PMS5003;58267;51.156;17.044;2024-01-15T08:42:28;15;12;
70691;PMS5003;58267;51.156;17.044;2024-01-15T08:44:53;16;16;
70691;PMS5003;58267;51.156;17.044;2024-01-15T08:47:18;14;13;
70691;PMS5003;58267;51.156;17.044;2024-01-15T08:49:44;14;13;
70691;PMS5003;58267;51.156;17.044;2024-01-15T08:52:09;17;15;
70691;PMS5003;58267;51.156;17.044;2024-01-15T08:54:35;19;15;
70691;PMS5003;58267;51.156;17.044;2024-01-15T08:57:01;14;14;
70691;PMS5003;58267;51.156;17.044;2024-01-15T08:59:27;15;14;
70691;PMS5003;58267;51.156;17.044;2024-01-15T09:44:33;11;11;
70691;PMS5003;58267;51.156;17.044;2024-01-15T09:46:59;15;12;
70691;PMS5003;58267;51.156;17.044;2024-01-15T09:49:24;13;12;
70691;PMS5003;58267;51.156;17.044;2024-01-15T09:51:50;10;9;
70691;PMS5003;58267;51.156;17.044;2024-01-15T09:54:15;10;10;
70691;PMS5003;58267;51.156;17.044;2024-01-15T09:56:40;16;16;
70691;PMS5003;58267;51.156;17.044;2024-01-15T09:59:06;12;12;
70691;PMS5003;58267;51.156;17.044;2024-01-15T10:01:31;12;12;
70691;PMS5003;58267;51.156;17.044;2024-01-15T10:03:57;17;16;
70691;PMS5003;58267;51.156;17.044;2024-01-15T10:06:22;13;12;
70691;PMS5003;58267;51.156;17.044;2024-01-15T10:08:48;14;12;
70691;PMS5003;58267;51.156;17.044;2024-01-15T10:11:13;13;11;
70691;PMS5003;58267;51.156;17.044;2024-01-15T10:13:39;14;13;
70691;PMS5003;58267;51.156;17.044;2024-01-15T10:16:04;10;10;
70691;PMS5003;58267;51.156;17.044;2024-01-15T10:18:29;12;11;
70691;PMS5003;58267;51.156;17.044;2024-01-15T10:20:54;8;8;
70691;PMS5003;58267;51.156;17.044;2024-01-15T10:23:19;13;13;
70691;PMS5003;58267;51.156;17.044;2024-01-15T10:25:45;13;12;
70691;PMS5003;58267;51.156;17.044;2024-01-15T10:28:13;14;12;
70691;PMS5003;58267;51.156;17.044;2024-01-15T10:30:36;12;12;
70691;PMS5003;58267;51.156;17.044;2024-01-15T10:33:02;12;12;
70691;PMS5003;58267;51.156;17.044;2024-01-15T10:35:28;14;13;
70691;PMS5003;58267;51.156;17.044;2024-01-15T10:37:52;14;13;
70691;PMS5003;58267;51.156;17.044;2024-01-15T10:40:18;12;11;
70691;PMS5003;58267;51.156;17.044;2024-01-15T10:42:43;12;11;
70691;PMS5003;58267;51.156;17.044;2024-01-15T10:45:09;11;11;
70691;PMS5003;58267;51.156;17.044;2024-01-15T10:47:34;13;13;
70691;PMS5003;58267;51.156;17.044;2024-01-15T10:49:59;13;11;
70691;PMS5003;58267;51.156;17.044;2024-01-15T10:52:25;11;11;
70691;PMS5003;58267;51.156;17.044;2024-01-15T10:54:50;11;10;
70691;PMS5003;58267;51.156;17.044;2024-01-15T10:57:16;10;10;
70691;PMS5003;58267;51.156;17.044;2024-01-15T10:59:41;13;13;
70691;PMS5003;58267;51.156;17.044;2024-01-15T11:02:06;10;9;
70691;PMS5003;58267;51.156;17.044;2024-01-15T11:04:32;10;10;
70691;PMS5003;58267;51.156;17.044;2024-01-15T11:06:57;14;13;
70691;PMS5003;58267;51.156;17.044;2024-01-15T11:09:23;9;9;
70691;PMS5003;58267;51.156;17.044;2024-01-15T11:11:50;11;10;
70691;PMS5003;58267;51.156;17.044;2024-01-15T11:19:05;12;11;
70691;PMS5003;58267;51.156;17.044;2024-01-15T11:21:30;10;9;
70691;PMS5003;58267;51.156;17.044;2024-01-15T11:23:56;13;11;
70691;PMS5003;58267;51.156;17.044;2024-01-15T11:28:47;10;9;
70691;PMS5003;58267;51.156;17.044;2024-01-15T11:31:13;11;10;
70691;PMS5003;58267;51.156;17.044;2024-01-15T11:33:37;13;11;
70691;PMS5003;58267;51.156;17.044;2024-01-15T11:36:02;11;9;
70691;PMS5003;58267;51.156;17.044;2024-01-15T11:38:27;12;10;
70691;PMS5003;58267;51.156;17.044;2024-01-15T11:40:53;7;7;
70691;PMS5003;58267;51.156;17.044;2024-01-15T11:43:18;11;9;
70691;PMS5003;58267;51.156;17.044;2024-01-15T11:45:44;10;9;
70691;PMS5003;58267;51.156;17.044;2024-01-15T11:48:11;11;11;
70691;PMS5003;58267;51.156;17.044;2024-01-15T11:50:35;11;11;
70691;PMS5003;58267;51.156;17.044;2024-01-15T11:53:01;12;11;
70691;PMS5003;58267;51.156;17.044;2024-01-15T11:55:27;9;8;
70691;PMS5003;58267;51.156;17.044;2024-01-15T11:57:53;13;12;
70691;PMS5003;58267;51.156;17.044;2024-01-15T12:00:18;10;10;
70691;PMS5003;58267;51.156;17.044;2024-01-15T12:02:44;13;12;
70691;PMS5003;58267;51.156;17.044;2024-01-15T12:05:09;11;10;
70691;PMS5003;58267;51.156;17.044;2024-01-15T12:07:34;12;11;
70691;PMS5003;58267;51.156;17.044;2024-01-15T12:09:59;10;9;
70691;PMS5003;58267;51.156;17.044;2024-01-15T12:12:26;10;10;
70691;PMS5003;58267;51.156;17.044;2024-01-15T12:14:50;11;9;
70691;PMS5003;58267;51.156;17.044;2024-01-15T12:17:16;12;11;
70691;PMS5003;58267;51.156;17.044;2024-01-15T12:19:41;11;11;
70691;PMS5003;58267;51.156;17.044;2024-01-15T12:22:06;16;14;
70691;PMS5003;58267;51.156;17.044;2024-01-15T12:24:31;10;10;
70691;PMS5003;58267;51.156;17.044;2024-01-15T12:26:57;14;14;
70691;PMS5003;58267;51.156;17.044;2024-01-15T12:29:23;14;11;
70691;PMS5003;58267;51.156;17.044;2024-01-15T12:31:48;13;12;
70691;PMS5003;58267;51.156;17.044;2024-01-15T12:34:14;16;13;
70691;PMS5003;58267;51.156;17.044;2024-01-15T12:36:39;9;9;
70691;PMS5003;58267;51.156;17.044;2024-01-15T12:39:05;16;11;
70691;PMS5003;58267;51.156;17.044;2024-01-15T12:41:30;11;11;
70691;PMS5003;58267;51.156;17.044;2024-01-15T12:43:56;12;11;
70691;PMS5003;58267;51.156;17.044;2024-01-15T12:46:21;11;10;
70691;PMS5003;58267;51.156;17.044;2024-01-15T12:48:46;13;12;
70691;PMS5003;58267;51.156;17.044;2024-01-15T12:51:11;13;12;
70691;PMS5003;58267;51.156;17.044;2024-01-15T12:53:37;14;12;
70691;PMS5003;58267;51.156;17.044;2024-01-15T12:56:03;13;13;
70691;PMS5003;58267;51.156;17.044;2024-01-15T12:58:28;13;12;
70691;PMS5003;58267;51.156;17.044;2024-01-15T13:00:53;10;10;
70691;PMS5003;58267;51.156;17.044;2024-01-15T13:03:18;13;12;
70691;PMS5003;58267;51.156;17.044;2024-01-15T13:05:43;13;12;
70691;PMS5003;58267;51.156;17.044;2024-01-15T13:08:09;12;11;
70691;PMS5003;58267;51.156;17.044;2024-01-15T13:10:34;13;12;
70691;PMS5003;58267;51.156;17.044;2024-01-15T13:12:59;10;9;
70691;PMS5003;58267;51.156;17.044;2024-01-15T13:15:24;13;12;
70691;PMS5003;58267;51.156;17.044;2024-01-15T13:17:49;14;13;
70691;PMS5003;58267;51.156;17.044;2024-01-15T13:20:15;12;10;
70691;PMS5003;58267;51.156;17.044;2024-01-15T13:22:40;10;9;
70691;PMS5003;58267;51.156;17.044;2024-01-15T13:25:06;16;14;
70691;PMS5003;58267;51.156;17.044;2024-01-15T13:27:32;12;11;
70691;PMS5003;58267;51.156;17.044;2024-01-15T13:29:57;13;11;
70691;PMS5003;58267;51.156;17.044;2024-01-15T13:32:23;11;10;
70691;PMS5003;58267;51.156;17.044;2024-01-15T13:34:47;13;12;
70691;PMS5003;58267;51.156;17.044;2024-01-15T13:37:12;13;13;
70691;PMS5003;58267;51.156;17.044;2024-01-15T13:39:38;13;11;
70691;PMS5003;58267;51.156;17.044;2024-01-15T13:42:03;12;11;
70691;PMS5003;58267;51.156;17.044;2024-01-15T13:44:28;16;13;
70691;PMS5003;58267;51.156;17.044;2024-01-15T13:46:54;17;14;
70691;PMS5003;58267;51.156;17.044;2024-01-15T13:49:19;15;14;
70691;PMS5003;58267;51.156;17.044;2024-01-15T13:51:45;13;12;
70691;PMS5003;58267;51.156;17.044;2024-01-15T13:54:11;11;11;
70691;PMS5003;58267;51.156;17.044;2024-01-15T13:56:35;13;11;
70691;PMS5003;58267;51.156;17.044;2024-01-15T13:59:01;13;12;
70691;PMS5003;58267;51.156;17.044;2024-01-15T14:01:26;13;12;
70691;PMS5003;58267;51.156;17.044;2024-01-15T14:03:52;12;12;
70691;PMS5003;58267;51.156;17.044;2024-01-15T14:06:17;10;10;
70691;PMS5003;58267;51.156;17.044;2024-01-15T14:08:42;13;11;
70691;PMS5003;58267;51.156;17.044;2024-01-15T14:11:07;14;13;
70691;PMS5003;58267;51.156;17.044;2024-01-15T14:13:33;13;12;
70691;PMS5003;58267;51.156;17.044;2024-01-15T14:15:59;12;12;
70691;PMS5003;58267;51.156;17.044;2024-01-15T14:18:25;11;11;
70691;PMS5003;58267;51.156;17.044;2024-01-15T14:20:50;15;14;
70691;PMS5003;58267;51.156;17.044;2024-01-15T14:23:16;15;13;
70691;PMS5003;58267;51.156;17.044;2024-01-15T14:25:41;16;14;
70691;PMS5003;58267;51.156;17.044;2024-01-15T14:28:07;13;12;
70691;PMS5003;58267;51.156;17.044;2024-01-15T14:30:32;10;10;
70691;PMS5003;58267;51.156;17.044;2024-01-15T14:32:57;15;14;
70691;PMS5003;58267;51.156;17.044;2024-01-15T14:35:22;10;9;
70691;PMS5003;58267;51.156;17.044;2024-01-15T14:37:48;14;13;
70691;PMS5003;58267;51.156;17.044;2024-01-15T14:40:14;11;10;
70691;PMS5003;58267;51.156;17.044;2024-01-15T14:42:39;12;11;
70691;PMS5003;58267;51.156;17.044;2024-01-15T14:45:04;17;12;
70691;PMS5003;58267;51.156;17.044;2024-01-15T14:47:30;13;11;
70691;PMS5003;58267;51.156;17.044;2024-01-15T14:49:55;14;13;
70691;PMS5003;58267;51.156;17.044;2024-01-15T14:52:20;17;13;
70691;PMS5003;58267;51.156;17.044;2024-01-15T14:54:46;11;10;
70691;PMS5003;58267;51.156;17.044;2024-01-15T14:57:11;12;11;
70691;PMS5003;58267;51.156;17.044;2024-01-15T14:59:37;13;11;
70691;PMS5003;58267;51.156;17.044;2024-01-15T15:02:03;9;9;
70691;PMS5003;58267;51.156;17.044;2024-01-15T15:04:28;10;9;
70691;PMS5003;58267;51.156;17.044;2024-01-15T15:06:53;14;12;
70691;PMS5003;58267;51.156;17.044;2024-01-15T15:09:19;9;9;
70691;PMS5003;58267;51.156;17.044;2024-01-15T15:11:44;12;11;
70691;PMS5003;58267;51.156;17.044;2024-01-15T15:14:14;13;9;
70691;PMS5003;58267;51.156;17.044;2024-01-15T15:16:34;11;11;
70691;PMS5003;58267;51.156;17.044;2024-01-15T15:19:00;14;13;
70691;PMS5003;58267;51.156;17.044;2024-01-15T15:21:25;14;13;
70691;PMS5003;58267;51.156;17.044;2024-01-15T15:23:51;12;11;
70691;PMS5003;58267;51.156;17.044;2024-01-15T15:26:16;12;11;
70691;PMS5003;58267;51.156;17.044;2024-01-15T15:28:41;11;11;
70691;PMS5003;58267;51.156;17.044;2024-01-15T15:31:07;13;12;
70691;PMS5003;58267;51.156;17.044;2024-01-15T15:33:33;12;12;
70691;PMS5003;58267;51.156;17.044;2024-01-15T15:35:58;11;10;
70691;PMS5003;58267;51.156;17.044;2024-01-15T15:38:23;10;9;
70691;PMS5003;58267;51.156;17.044;2024-01-15T15:40:49;11;10;
70691;PMS5003;58267;51.156;17.044;2024-01-15T15:43:14;11;11;
70691;PMS5003;58267;51.156;17.044;2024-01-15T15:45:39;11;10;
70691;PMS5003;58267;51.156;17.044;2024-01-15T15:48:05;8;8;
70691;PMS5003;58267;51.156;17.044;2024-01-15T15:50:30;9;9;
70691;PMS5003;58267;51.156;17.044;2024-01-15T15:52:55;14;12;
70691;PMS5003;58267;51.156;17.044;2024-01-15T15:55:21;12;11;
70691;PMS5003;58267;51.156;17.044;2024-01-15T15:57:46;12;12;
70691;PMS5003;58267;51.156;17.044;2024-01-15T16:00:11;11;11;
70691;PMS5003;58267;51.156;17.044;2024-01-15T16:02:36;11;10;
70691;PMS5003;58267;51.156;17.044;2024-01-15T16:05:02;11;11;
70691;PMS5003;58267;51.156;17.044;2024-01-15T16:07:27;10;10;
70691;PMS5003;58267;51.156;17.044;2024-01-15T16:09:52;10;8;
70691;PMS5003;58267;51.156;17.044;2024-01-15T16:12:17;11;10;
70691;PMS5003;58267;51.156;17.044;2024-01-15T16:14:43;10;9;
70691;PMS5003;58267;51.156;17.044;2024-01-15T16:17:08;13;12;
70691;PMS5003;58267;51.156;17.044;2024-01-15T16:19:34;12;11;
70691;PMS5003;58267;51.156;17.044;2024-01-15T16:22:00;14;13;
70691;PMS5003;58267;51.156;17.044;2024-01-15T16:24:25;14;13;
70691;PMS5003;58267;51.156;17.044;2024-01-15T16:26:50;13;13;
70691;PMS5003;58267;51.156;17.044;2024-01-15T16:29:16;13;12;
70691;PMS5003;58267;51.156;17.044;2024-01-15T16:31:42;14;13;
70691;PMS5003;58267;51.156;17.044;2024-01-15T16:34:07;13;13;
70691;PMS5003;58267;51.156;17.044;2024-01-15T16:36:33;12;12;
70691;PMS5003;58267;51.156;17.044;2024-01-15T16:39:00;11;11;
70691;PMS5003;58267;51.156;17.044;2024-01-15T16:41:25;21;17;